sensor_id;sensor_type;location;lat;lon;timestamp;temperature;humidity
52275;DHT22;38228;50.940;4.024;2022-11-30T00:00:52;6.60;99.90
52275;DHT22;38228;50.940;4.024;2022-11-30T00:03:18;6.70;99.90
52275;DHT22;38228;50.940;4.024;2022-11-30T00:05:43;6.80;99.90
52275;DHT22;38228;50.940;4.024;2022-11-30T00:08:09;6.90;99.90
52275;DHT22;38228;50.940;4.024;2022-11-30T00:10:37;6.90;99.90
52275;DHT22;38228;50.940;4.024;2022-11-30T00:13:03;6.90;99.90
52275;DHT22;38228;50.940;4.024;2022-11-30T00:15:29;6.70;99.90
52275;DHT22;38228;50.940;4.024;2022-11-30T00:17:55;6.60;99.90
52275;DHT22;38228;50.940;4.024;2022-11-30T00:20:21;6.60;99.90
52275;DHT22;38228;50.940;4.024;2022-11-30T00:22:47;6.50;99.90
52275;DHT22;38228;50.940;4.024;2022-11-30T00:25:13;6.60;99.90
52275;DHT22;38228;50.940;4.024;2022-11-30T00:27:38;6.80;99.90
52275;DHT22;38228;50.940;4.024;2022-11-30T00:30:05;6.80;99.90
52275;DHT22;38228;50.940;4.024;2022-11-30T00:32:31;6.80;99.90
52275;DHT22;38228;50.940;4.024;2022-11-30T00:34:56;6.80;99.90
52275;DHT22;38228;50.940;4.024;2022-11-30T00:37:22;6.90;99.90
52275;DHT22;38228;50.940;4.024;2022-11-30T00:39:48;6.90;99.90
52275;DHT22;38228;50.940;4.024;2022-11-30T00:42:14;6.80;99.90
52275;DHT22;38228;50.940;4.024;2022-11-30T00:44:39;6.70;99.90
52275;DHT22;38228;50.940;4.024;2022-11-30T00:47:05;6.70;99.90
52275;DHT22;38228;50.940;4.024;2022-11-30T00:49:31;6.80;99.90
52275;DHT22;38228;50.940;4.024;2022-11-30T00:51:58;6.80;99.90
52275;DHT22;38228;50.940;4.024;2022-11-30T00:54:24;6.70;99.90
52275;DHT22;38228;50.940;4.024;2022-11-30T00:56:50;6.70;99.90
52275;DHT22;38228;50.940;4.024;2022-11-30T00:59:16;6.90;99.90
52275;DHT22;38228;50.940;4.024;2022-11-30T01:01:42;7.00;99.90
52275;DHT22;38228;50.940;4.024;2022-11-30T01:04:07;7.00;99.90
52275;DHT22;38228;50.940;4.024;2022-11-30T01:06:33;7.00;99.90
52275;DHT22;38228;50.940;4.024;2022-11-30T01:08:59;6.90;99.90
52275;DHT22;38228;50.940;4.024;2022-11-30T01:11:26;6.80;99.90
52275;DHT22;38228;50.940;4.024;2022-11-30T01:13:53;6.80;99.90
52275;DHT22;38228;50.940;4.024;2022-11-30T01:16:22;6.80;99.90
52275;DHT22;38228;50.940;4.024;2022-11-30T01:18:48;6.80;99.90
52275;DHT22;38228;50.940;4.024;2022-11-30T01:21:16;6.80;99.90
52275;DHT22;38228;50.940;4.024;2022-11-30T01:23:43;6.90;99.90
52275;DHT22;38228;50.940;4.024;2022-11-30T01:26:09;6.90;99.90
52275;DHT22;38228;50.940;4.024;2022-11-30T01:28:35;6.90;99.90
52275;DHT22;38228;50.940;4.024;2022-11-30T01:31:03;7.10;99.90
52275;DHT22;38228;50.940;4.024;2022-11-30T01:33:29;7.10;99.90
52275;DHT22;38228;50.940;4.024;2022-11-30T01:36:06;7.20;99.90
52275;DHT22;38228;50.940;4.024;2022-11-30T01:38:33;7.00;99.90
52275;DHT22;38228;50.940;4.024;2022-11-30T01:41:00;6.80;99.90
52275;DHT22;38228;50.940;4.024;2022-11-30T01:43:37;6.90;99.90
52275;DHT22;38228;50.940;4.024;2022-11-30T01:46:03;7.00;99.90
52275;DHT22;38228;50.940;4.024;2022-11-30T01:48:29;7.00;99.90
52275;DHT22;38228;50.940;4.024;2022-11-30T01:50:55;7.00;99.90
52275;DHT22;38228;50.940;4.024;2022-11-30T01:53:22;7.00;99.90
52275;DHT22;38228;50.940;4.024;2022-11-30T01:55:49;7.00;99.90
52275;DHT22;38228;50.940;4.024;2022-11-30T01:58:21;6.80;99.90
52275;DHT22;38228;50.940;4.024;2022-11-30T02:00:48;6.80;99.90
52275;DHT22;38228;50.940;4.024;2022-11-30T02:05:42;6.60;99.90
52275;DHT22;38228;50.940;4.024;2022-11-30T02:08:10;6.50;99.90
52275;DHT22;38228;50.940;4.024;2022-11-30T02:10:40;6.50;99.90
52275;DHT22;38228;50.940;4.024;2022-11-30T02:13:30;6.60;99.90
52275;DHT22;38228;50.940;4.024;2022-11-30T02:18:58;6.90;99.90
52275;DHT22;38228;50.940;4.024;2022-11-30T02:30:04;6.80;99.90
52275;DHT22;38228;50.940;4.024;2022-11-30T02:32:44;6.80;99.90
52275;DHT22;38228;50.940;4.024;2022-11-30T02:35:14;7.00;99.90
52275;DHT22;38228;50.940;4.024;2022-11-30T02:37:42;6.90;99.90
52275;DHT22;38228;50.940;4.024;2022-11-30T02:40:18;6.90;99.90
52275;DHT22;38228;50.940;4.024;2022-11-30T02:42:44;7.00;99.90
52275;DHT22;38228;50.940;4.024;2022-11-30T02:45:10;6.90;99.90
52275;DHT22;38228;50.940;4.024;2022-11-30T02:47:40;7.00;99.90
52275;DHT22;38228;50.940;4.024;2022-11-30T02:52:38;7.00;99.90
52275;DHT22;38228;50.940;4.024;2022-11-30T02:55:09;6.90;99.90
52275;DHT22;38228;50.940;4.024;2022-11-30T02:57:35;6.90;99.90
52275;DHT22;38228;50.940;4.024;2022-11-30T03:00:04;6.90;99.90
52275;DHT22;38228;50.940;4.024;2022-11-30T03:02:31;6.90;99.90
52275;DHT22;38228;50.940;4.024;2022-11-30T03:04:57;6.90;99.90
52275;DHT22;38228;50.940;4.024;2022-11-30T03:07:23;6.90;99.90
52275;DHT22;38228;50.940;4.024;2022-11-30T03:09:48;6.90;99.90
52275;DHT22;38228;50.940;4.024;2022-11-30T03:12:14;7.00;99.90
52275;DHT22;38228;50.940;4.024;2022-11-30T03:14:40;7.10;99.90
52275;DHT22;38228;50.940;4.024;2022-11-30T03:17:06;7.00;99.90
52275;DHT22;38228;50.940;4.024;2022-11-30T03:19:32;7.20;99.90
52275;DHT22;38228;50.940;4.024;2022-11-30T03:21:59;7.20;99.90
52275;DHT22;38228;50.940;4.024;2022-11-30T03:24:24;7.00;99.90
52275;DHT22;38228;50.940;4.024;2022-11-30T03:26:50;7.10;99.90
52275;DHT22;38228;50.940;4.024;2022-11-30T03:29:16;7.10;99.90
52275;DHT22;38228;50.940;4.024;2022-11-30T03:31:42;7.20;99.90
52275;DHT22;38228;50.940;4.024;2022-11-30T03:34:08;7.10;99.90
52275;DHT22;38228;50.940;4.024;2022-11-30T03:36:33;7.00;99.90
52275;DHT22;38228;50.940;4.024;2022-11-30T03:38:59;7.10;99.90
52275;DHT22;38228;50.940;4.024;2022-11-30T03:41:25;7.30;99.90
52275;DHT22;38228;50.940;4.024;2022-11-30T03:43:50;7.20;99.90
52275;DHT22;38228;50.940;4.024;2022-11-30T03:46:16;7.30;99.90
52275;DHT22;38228;50.940;4.024;2022-11-30T03:48:42;7.30;99.90
52275;DHT22;38228;50.940;4.024;2022-11-30T03:51:09;7.40;99.90
52275;DHT22;38228;50.940;4.024;2022-11-30T03:53:35;7.40;99.90
52275;DHT22;38228;50.940;4.024;2022-11-30T03:56:04;7.40;99.90
52275;DHT22;38228;50.940;4.024;2022-11-30T03:58:30;7.20;99.90
52275;DHT22;38228;50.940;4.024;2022-11-30T04:03:31;7.00;99.90
52275;DHT22;38228;50.940;4.024;2022-11-30T04:05:57;6.90;99.90
52275;DHT22;38228;50.940;4.024;2022-11-30T04:08:24;7.00;99.90
52275;DHT22;38228;50.940;4.024;2022-11-30T04:10:51;6.90;99.90
52275;DHT22;38228;50.940;4.024;2022-11-30T04:13:18;7.10;99.90
52275;DHT22;38228;50.940;4.024;2022-11-30T04:15:45;7.10;99.90
52275;DHT22;38228;50.940;4.024;2022-11-30T04:18:12;7.10;99.90
52275;DHT22;38228;50.940;4.024;2022-11-30T04:20:38;7.10;99.90
52275;DHT22;38228;50.940;4.024;2022-11-30T04:23:04;7.00;99.90
52275;DHT22;38228;50.940;4.024;2022-11-30T04:25:30;6.80;99.90
52275;DHT22;38228;50.940;4.024;2022-11-30T04:27:55;6.70;99.90
52275;DHT22;38228;50.940;4.024;2022-11-30T04:30:21;6.70;99.90
52275;DHT22;38228;50.940;4.024;2022-11-30T04:32:47;6.80;99.90
52275;DHT22;38228;50.940;4.024;2022-11-30T04:35:12;7.00;99.90
52275;DHT22;38228;50.940;4.024;2022-11-30T04:37:38;6.70;99.90
52275;DHT22;38228;50.940;4.024;2022-11-30T04:40:05;6.80;99.90
52275;DHT22;38228;50.940;4.024;2022-11-30T04:42:31;7.00;99.90
52275;DHT22;38228;50.940;4.024;2022-11-30T04:44:57;7.20;99.90
52275;DHT22;38228;50.940;4.024;2022-11-30T04:47:22;7.20;99.90
52275;DHT22;38228;50.940;4.024;2022-11-30T04:49:48;7.00;99.90
52275;DHT22;38228;50.940;4.024;2022-11-30T04:52:14;7.30;99.90
52275;DHT22;38228;50.940;4.024;2022-11-30T04:54:40;7.20;99.90
52275;DHT22;38228;50.940;4.024;2022-11-30T04:57:06;7.00;99.90
52275;DHT22;38228;50.940;4.024;2022-11-30T04:59:32;6.80;99.90
52275;DHT22;38228;50.940;4.024;2022-11-30T05:01:57;6.90;99.90
52275;DHT22;38228;50.940;4.024;2022-11-30T05:04:23;7.20;99.90
52275;DHT22;38228;50.940;4.024;2022-11-30T05:06:49;7.00;99.90
52275;DHT22;38228;50.940;4.024;2022-11-30T05:09:14;6.90;99.90
52275;DHT22;38228;50.940;4.024;2022-11-30T05:11:40;6.80;99.90
52275;DHT22;38228;50.940;4.024;2022-11-30T05:14:06;7.00;99.90
52275;DHT22;38228;50.940;4.024;2022-11-30T05:16:31;7.00;99.90
52275;DHT22;38228;50.940;4.024;2022-11-30T05:18:57;7.00;99.90
52275;DHT22;38228;50.940;4.024;2022-11-30T05:21:23;6.80;99.90
52275;DHT22;38228;50.940;4.024;2022-11-30T05:23:48;6.90;99.90
52275;DHT22;38228;50.940;4.024;2022-11-30T05:26:16;7.00;99.90
52275;DHT22;38228;50.940;4.024;2022-11-30T05:28:41;7.00;99.90
52275;DHT22;38228;50.940;4.024;2022-11-30T05:31:07;7.00;99.90
52275;DHT22;38228;50.940;4.024;2022-11-30T05:33:33;6.90;99.90
52275;DHT22;38228;50.940;4.024;2022-11-30T05:35:59;6.80;99.90
52275;DHT22;38228;50.940;4.024;2022-11-30T05:38:25;6.60;99.90
52275;DHT22;38228;50.940;4.024;2022-11-30T05:40:50;6.80;99.90
52275;DHT22;38228;50.940;4.024;2022-11-30T05:43:16;7.00;99.90
52275;DHT22;38228;50.940;4.024;2022-11-30T05:45:43;7.00;99.90
52275;DHT22;38228;50.940;4.024;2022-11-30T05:48:09;6.80;99.90
52275;DHT22;38228;50.940;4.024;2022-11-30T05:50:34;6.80;99.90
52275;DHT22;38228;50.940;4.024;2022-11-30T05:53:00;6.80;99.90
52275;DHT22;38228;50.940;4.024;2022-11-30T05:55:28;6.70;99.90
52275;DHT22;38228;50.940;4.024;2022-11-30T05:57:54;6.70;99.90
52275;DHT22;38228;50.940;4.024;2022-11-30T06:00:20;6.70;99.90
52275;DHT22;38228;50.940;4.024;2022-11-30T06:02:46;6.80;99.90
52275;DHT22;38228;50.940;4.024;2022-11-30T06:05:12;6.70;99.90
52275;DHT22;38228;50.940;4.024;2022-11-30T06:07:39;6.70;99.90
52275;DHT22;38228;50.940;4.024;2022-11-30T06:10:05;6.60;99.90
52275;DHT22;38228;50.940;4.024;2022-11-30T06:12:31;6.40;99.90
52275;DHT22;38228;50.940;4.024;2022-11-30T06:14:57;6.20;99.90
52275;DHT22;38228;50.940;4.024;2022-11-30T06:17:23;6.20;99.90
52275;DHT22;38228;50.940;4.024;2022-11-30T06:19:49;6.30;99.90
52275;DHT22;38228;50.940;4.024;2022-11-30T06:22:14;6.00;99.90
52275;DHT22;38228;50.940;4.024;2022-11-30T06:24:40;6.00;99.90
52275;DHT22;38228;50.940;4.024;2022-11-30T06:27:06;6.00;99.90
52275;DHT22;38228;50.940;4.024;2022-11-30T06:29:31;6.10;99.90
52275;DHT22;38228;50.940;4.024;2022-11-30T06:31:57;6.00;99.90
52275;DHT22;38228;50.940;4.024;2022-11-30T06:34:23;6.10;99.90
52275;DHT22;38228;50.940;4.024;2022-11-30T06:36:48;6.10;99.90
52275;DHT22;38228;50.940;4.024;2022-11-30T06:39:14;6.40;99.90
52275;DHT22;38228;50.940;4.024;2022-11-30T06:41:41;6.60;99.90
52275;DHT22;38228;50.940;4.024;2022-11-30T06:44:08;6.90;99.90
52275;DHT22;38228;50.940;4.024;2022-11-30T06:46:34;7.00;99.90
52275;DHT22;38228;50.940;4.024;2022-11-30T06:48:59;7.00;99.90
52275;DHT22;38228;50.940;4.024;2022-11-30T06:51:25;6.70;99.90
52275;DHT22;38228;50.940;4.024;2022-11-30T06:53:51;6.60;99.90
52275;DHT22;38228;50.940;4.024;2022-11-30T06:56:16;6.50;99.90
52275;DHT22;38228;50.940;4.024;2022-11-30T06:58:42;6.80;99.90
52275;DHT22;38228;50.940;4.024;2022-11-30T07:01:11;6.90;99.90
52275;DHT22;38228;50.940;4.024;2022-11-30T07:03:37;6.90;99.90
52275;DHT22;38228;50.940;4.024;2022-11-30T07:06:11;6.90;99.90
52275;DHT22;38228;50.940;4.024;2022-11-30T07:08:37;6.80;99.90
52275;DHT22;38228;50.940;4.024;2022-11-30T07:11:04;6.70;99.90
52275;DHT22;38228;50.940;4.024;2022-11-30T07:13:30;6.60;99.90
52275;DHT22;38228;50.940;4.024;2022-11-30T07:15:56;6.60;99.90
52275;DHT22;38228;50.940;4.024;2022-11-30T07:18:21;6.70;99.90
52275;DHT22;38228;50.940;4.024;2022-11-30T07:20:47;6.70;99.90
52275;DHT22;38228;50.940;4.024;2022-11-30T07:23:13;6.70;99.90
52275;DHT22;38228;50.940;4.024;2022-11-30T07:26:01;6.50;99.90
52275;DHT22;38228;50.940;4.024;2022-11-30T07:28:43;6.60;99.90
52275;DHT22;38228;50.940;4.024;2022-11-30T07:31:27;6.60;99.90
52275;DHT22;38228;50.940;4.024;2022-11-30T07:33:55;6.80;99.90
52275;DHT22;38228;50.940;4.024;2022-11-30T07:36:22;6.70;99.90
52275;DHT22;38228;50.940;4.024;2022-11-30T07:38:51;6.70;99.90
52275;DHT22;38228;50.940;4.024;2022-11-30T07:41:17;6.80;99.90
52275;DHT22;38228;50.940;4.024;2022-11-30T07:43:43;7.00;99.90
52275;DHT22;38228;50.940;4.024;2022-11-30T07:46:11;6.90;99.90
52275;DHT22;38228;50.940;4.024;2022-11-30T07:48:37;6.90;99.90
52275;DHT22;38228;50.940;4.024;2022-11-30T07:53:38;6.70;99.90
52275;DHT22;38228;50.940;4.024;2022-11-30T07:56:09;6.50;99.90
52275;DHT22;38228;50.940;4.024;2022-11-30T07:58:35;6.50;99.90
52275;DHT22;38228;50.940;4.024;2022-11-30T08:01:06;6.30;99.90
52275;DHT22;38228;50.940;4.024;2022-11-30T08:03:32;6.50;99.90
52275;DHT22;38228;50.940;4.024;2022-11-30T08:06:03;6.40;99.90
52275;DHT22;38228;50.940;4.024;2022-11-30T08:08:30;6.40;99.90
52275;DHT22;38228;50.940;4.024;2022-11-30T08:10:56;6.20;99.90
52275;DHT22;38228;50.940;4.024;2022-11-30T08:13:22;6.40;99.90
52275;DHT22;38228;50.940;4.024;2022-11-30T08:15:49;6.40;99.90
52275;DHT22;38228;50.940;4.024;2022-11-30T08:18:17;6.10;99.90
52275;DHT22;38228;50.940;4.024;2022-11-30T08:20:42;6.20;99.90
52275;DHT22;38228;50.940;4.024;2022-11-30T08:23:08;6.20;99.90
52275;DHT22;38228;50.940;4.024;2022-11-30T08:25:34;6.30;99.90
52275;DHT22;38228;50.940;4.024;2022-11-30T08:28:00;6.30;99.90
52275;DHT22;38228;50.940;4.024;2022-11-30T08:30:25;6.40;99.90
52275;DHT22;38228;50.940;4.024;2022-11-30T08:32:51;6.60;99.90
52275;DHT22;38228;50.940;4.024;2022-11-30T08:35:17;6.30;99.90
52275;DHT22;38228;50.940;4.024;2022-11-30T08:37:42;6.10;99.90
52275;DHT22;38228;50.940;4.024;2022-11-30T08:40:08;5.90;99.90
52275;DHT22;38228;50.940;4.024;2022-11-30T08:42:35;6.00;99.90
52275;DHT22;38228;50.940;4.024;2022-11-30T08:45:01;6.00;99.90
52275;DHT22;38228;50.940;4.024;2022-11-30T08:47:29;6.10;99.90
52275;DHT22;38228;50.940;4.024;2022-11-30T08:49:56;6.30;99.90
52275;DHT22;38228;50.940;4.024;2022-11-30T08:52:22;6.30;99.90
52275;DHT22;38228;50.940;4.024;2022-11-30T08:54:48;6.50;99.90
52275;DHT22;38228;50.940;4.024;2022-11-30T08:57:19;6.60;99.90
52275;DHT22;38228;50.940;4.024;2022-11-30T08:59:46;6.80;99.90
52275;DHT22;38228;50.940;4.024;2022-11-30T09:02:13;6.80;99.90
52275;DHT22;38228;50.940;4.024;2022-11-30T09:04:42;6.40;99.90
52275;DHT22;38228;50.940;4.024;2022-11-30T09:07:07;6.30;99.90
52275;DHT22;38228;50.940;4.024;2022-11-30T09:09:34;6.40;99.90
52275;DHT22;38228;50.940;4.024;2022-11-30T09:12:00;6.40;99.90
52275;DHT22;38228;50.940;4.024;2022-11-30T09:14:26;6.30;99.90
52275;DHT22;38228;50.940;4.024;2022-11-30T09:16:54;6.10;99.90
52275;DHT22;38228;50.940;4.024;2022-11-30T09:19:20;6.30;99.90
52275;DHT22;38228;50.940;4.024;2022-11-30T09:21:46;6.60;99.90
52275;DHT22;38228;50.940;4.024;2022-11-30T09:24:12;6.90;99.90
52275;DHT22;38228;50.940;4.024;2022-11-30T09:26:38;7.00;99.90
52275;DHT22;38228;50.940;4.024;2022-11-30T09:29:04;7.00;99.90
52275;DHT22;38228;50.940;4.024;2022-11-30T09:31:30;7.20;99.90
52275;DHT22;38228;50.940;4.024;2022-11-30T09:33:56;6.80;99.90
52275;DHT22;38228;50.940;4.024;2022-11-30T09:36:24;6.90;99.90
52275;DHT22;38228;50.940;4.024;2022-11-30T09:38:52;6.90;99.90
52275;DHT22;38228;50.940;4.024;2022-11-30T09:47:21;7.30;99.90
52275;DHT22;38228;50.940;4.024;2022-11-30T09:49:50;7.20;99.90
52275;DHT22;38228;50.940;4.024;2022-11-30T09:52:35;7.10;99.90
52275;DHT22;38228;50.940;4.024;2022-11-30T09:55:12;7.30;99.90
52275;DHT22;38228;50.940;4.024;2022-11-30T10:00:19;7.50;99.90
52275;DHT22;38228;50.940;4.024;2022-11-30T10:02:48;7.70;99.90
52275;DHT22;38228;50.940;4.024;2022-11-30T10:05:46;7.80;99.90
52275;DHT22;38228;50.940;4.024;2022-11-30T10:14:43;7.60;99.90
52275;DHT22;38228;50.940;4.024;2022-11-30T10:17:32;7.80;99.90
52275;DHT22;38228;50.940;4.024;2022-11-30T10:25:24;8.10;99.90
52275;DHT22;38228;50.940;4.024;2022-11-30T10:28:17;8.00;99.90
52275;DHT22;38228;50.940;4.024;2022-11-30T10:30:44;7.40;99.90
52275;DHT22;38228;50.940;4.024;2022-11-30T10:33:22;7.50;99.90
52275;DHT22;38228;50.940;4.024;2022-11-30T10:36:02;7.70;99.90
52275;DHT22;38228;50.940;4.024;2022-11-30T10:38:42;7.50;99.90
52275;DHT22;38228;50.940;4.024;2022-11-30T10:41:32;7.40;99.90
52275;DHT22;38228;50.940;4.024;2022-11-30T10:44:13;7.30;99.90
52275;DHT22;38228;50.940;4.024;2022-11-30T10:46:44;7.40;99.90
52275;DHT22;38228;50.940;4.024;2022-11-30T10:49:15;7.60;99.90
52275;DHT22;38228;50.940;4.024;2022-11-30T10:51:45;7.60;99.90
52275;DHT22;38228;50.940;4.024;2022-11-30T10:54:15;7.90;99.90
52275;DHT22;38228;50.940;4.024;2022-11-30T10:56:48;7.80;99.90
52275;DHT22;38228;50.940;4.024;2022-11-30T10:59:44;7.60;99.90
52275;DHT22;38228;50.940;4.024;2022-11-30T11:02:49;7.60;99.90
52275;DHT22;38228;50.940;4.024;2022-11-30T11:05:26;7.20;99.90
52275;DHT22;38228;50.940;4.024;2022-11-30T11:07:55;6.90;99.90
52275;DHT22;38228;50.940;4.024;2022-11-30T11:10:44;6.80;99.90
52275;DHT22;38228;50.940;4.024;2022-11-30T11:13:38;7.30;99.90
52275;DHT22;38228;50.940;4.024;2022-11-30T11:16:05;7.30;99.90
52275;DHT22;38228;50.940;4.024;2022-11-30T11:18:33;7.00;99.90
52275;DHT22;38228;50.940;4.024;2022-11-30T11:21:15;7.00;99.90
52275;DHT22;38228;50.940;4.024;2022-11-30T11:23:43;7.10;99.90
52275;DHT22;38228;50.940;4.024;2022-11-30T11:26:23;7.40;99.90
52275;DHT22;38228;50.940;4.024;2022-11-30T11:28:51;7.60;99.90
52275;DHT22;38228;50.940;4.024;2022-11-30T11:31:42;7.70;99.90
52275;DHT22;38228;50.940;4.024;2022-11-30T11:34:32;7.70;99.90
52275;DHT22;38228;50.940;4.024;2022-11-30T11:37:24;8.00;99.90
52275;DHT22;38228;50.940;4.024;2022-11-30T11:42:21;7.90;99.90
52275;DHT22;38228;50.940;4.024;2022-11-30T11:44:52;7.80;99.90
52275;DHT22;38228;50.940;4.024;2022-11-30T11:47:32;8.10;99.90
52275;DHT22;38228;50.940;4.024;2022-11-30T11:50:20;8.10;99.90
52275;DHT22;38228;50.940;4.024;2022-11-30T11:52:47;7.80;99.90
52275;DHT22;38228;50.940;4.024;2022-11-30T11:55:17;7.80;99.90
52275;DHT22;38228;50.940;4.024;2022-11-30T11:57:53;7.80;99.90
52275;DHT22;38228;50.940;4.024;2022-11-30T12:00:22;7.80;99.90
52275;DHT22;38228;50.940;4.024;2022-11-30T12:05:34;7.30;99.90
52275;DHT22;38228;50.940;4.024;2022-11-30T12:13:40;8.20;99.90
52275;DHT22;38228;50.940;4.024;2022-11-30T12:18:47;8.50;99.90
52275;DHT22;38228;50.940;4.024;2022-11-30T12:21:20;8.40;99.90
52275;DHT22;38228;50.940;4.024;2022-11-30T12:23:57;8.60;99.90
52275;DHT22;38228;50.940;4.024;2022-11-30T12:26:46;8.70;99.90
52275;DHT22;38228;50.940;4.024;2022-11-30T12:37:54;8.90;99.90
52275;DHT22;38228;50.940;4.024;2022-11-30T12:40:45;9.10;99.90
52275;DHT22;38228;50.940;4.024;2022-11-30T12:49:21;9.00;99.90
52275;DHT22;38228;50.940;4.024;2022-11-30T12:55:06;8.60;99.90
52275;DHT22;38228;50.940;4.024;2022-11-30T12:57:37;8.60;99.90
52275;DHT22;38228;50.940;4.024;2022-11-30T13:00:42;8.70;99.90
52275;DHT22;38228;50.940;4.024;2022-11-30T13:06:04;8.70;99.90
52275;DHT22;38228;50.940;4.024;2022-11-30T13:08:37;8.70;99.90
52275;DHT22;38228;50.940;4.024;2022-11-30T13:11:13;8.80;99.90
52275;DHT22;38228;50.940;4.024;2022-11-30T13:13:49;8.70;99.90
52275;DHT22;38228;50.940;4.024;2022-11-30T13:16:17;8.70;99.90
52275;DHT22;38228;50.940;4.024;2022-11-30T13:18:44;8.90;99.90
52275;DHT22;38228;50.940;4.024;2022-11-30T13:21:33;9.00;99.90
52275;DHT22;38228;50.940;4.024;2022-11-30T13:24:15;8.90;99.90
52275;DHT22;38228;50.940;4.024;2022-11-30T13:27:09;8.90;99.90
52275;DHT22;38228;50.940;4.024;2022-11-30T13:32:32;9.20;99.90
52275;DHT22;38228;50.940;4.024;2022-11-30T13:38:04;8.20;99.90
52275;DHT22;38228;50.940;4.024;2022-11-30T13:40:30;8.30;99.90
52275;DHT22;38228;50.940;4.024;2022-11-30T13:42:56;8.10;99.90
52275;DHT22;38228;50.940;4.024;2022-11-30T13:45:30;8.00;99.90
52275;DHT22;38228;50.940;4.024;2022-11-30T13:47:57;8.00;99.90
52275;DHT22;38228;50.940;4.024;2022-11-30T13:50:36;7.90;99.90
52275;DHT22;38228;50.940;4.024;2022-11-30T13:58:12;8.20;99.90
52275;DHT22;38228;50.940;4.024;2022-11-30T14:03:25;8.10;99.90
52275;DHT22;38228;50.940;4.024;2022-11-30T14:25:48;8.30;99.90
52275;DHT22;38228;50.940;4.024;2022-11-30T14:28:18;8.30;99.90
52275;DHT22;38228;50.940;4.024;2022-11-30T14:30:45;8.30;99.90
52275;DHT22;38228;50.940;4.024;2022-11-30T14:33:16;8.30;99.90
52275;DHT22;38228;50.940;4.024;2022-11-30T14:35:47;8.30;99.90
52275;DHT22;38228;50.940;4.024;2022-11-30T14:38:29;8.30;99.90
52275;DHT22;38228;50.940;4.024;2022-11-30T14:40:56;8.00;99.90
52275;DHT22;38228;50.940;4.024;2022-11-30T14:43:23;7.90;99.90
52275;DHT22;38228;50.940;4.024;2022-11-30T14:45:58;7.90;99.90
52275;DHT22;38228;50.940;4.024;2022-11-30T14:48:25;7.90;99.90
52275;DHT22;38228;50.940;4.024;2022-11-30T14:50:52;7.90;99.90
52275;DHT22;38228;50.940;4.024;2022-11-30T14:56:18;8.10;99.90
52275;DHT22;38228;50.940;4.024;2022-11-30T15:01:39;8.20;99.90
52275;DHT22;38228;50.940;4.024;2022-11-30T15:04:16;8.00;99.90
52275;DHT22;38228;50.940;4.024;2022-11-30T15:06:42;8.00;99.90
52275;DHT22;38228;50.940;4.024;2022-11-30T15:09:16;8.10;99.90
52275;DHT22;38228;50.940;4.024;2022-11-30T15:11:45;8.10;99.90
52275;DHT22;38228;50.940;4.024;2022-11-30T15:14:12;8.00;99.90
52275;DHT22;38228;50.940;4.024;2022-11-30T15:16:49;8.10;99.90
52275;DHT22;38228;50.940;4.024;2022-11-30T15:19:32;8.20;99.90
52275;DHT22;38228;50.940;4.024;2022-11-30T15:21:59;8.10;99.90
52275;DHT22;38228;50.940;4.024;2022-11-30T15:24:25;8.00;99.90
52275;DHT22;38228;50.940;4.024;2022-11-30T15:27:06;8.10;99.90
52275;DHT22;38228;50.940;4.024;2022-11-30T15:29:34;8.10;99.90
52275;DHT22;38228;50.940;4.024;2022-11-30T15:32:04;8.10;99.90
52275;DHT22;38228;50.940;4.024;2022-11-30T15:34:57;8.10;99.90
52275;DHT22;38228;50.940;4.024;2022-11-30T15:37:30;8.10;99.90
52275;DHT22;38228;50.940;4.024;2022-11-30T15:39:58;8.10;99.90
52275;DHT22;38228;50.940;4.024;2022-11-30T15:42:35;8.00;99.90
52275;DHT22;38228;50.940;4.024;2022-11-30T15:47:48;8.30;99.90
52275;DHT22;38228;50.940;4.024;2022-11-30T15:52:54;8.00;99.90
52275;DHT22;38228;50.940;4.024;2022-11-30T15:55:40;7.80;99.90
52275;DHT22;38228;50.940;4.024;2022-11-30T16:01:23;8.20;99.90
52275;DHT22;38228;50.940;4.024;2022-11-30T16:08:54;7.80;99.90
52275;DHT22;38228;50.940;4.024;2022-11-30T16:11:20;7.80;99.90
52275;DHT22;38228;50.940;4.024;2022-11-30T16:13:46;7.70;99.90
52275;DHT22;38228;50.940;4.024;2022-11-30T16:16:16;7.80;99.90
52275;DHT22;38228;50.940;4.024;2022-11-30T16:18:44;7.70;99.90
52275;DHT22;38228;50.940;4.024;2022-11-30T16:21:12;7.70;99.90
52275;DHT22;38228;50.940;4.024;2022-11-30T16:23:41;8.00;99.90
52275;DHT22;38228;50.940;4.024;2022-11-30T16:26:17;7.90;99.90
52275;DHT22;38228;50.940;4.024;2022-11-30T16:28:43;8.20;99.90
52275;DHT22;38228;50.940;4.024;2022-11-30T16:31:17;8.10;99.90
52275;DHT22;38228;50.940;4.024;2022-11-30T16:33:44;8.30;99.90
52275;DHT22;38228;50.940;4.024;2022-11-30T16:36:18;8.40;99.90
52275;DHT22;38228;50.940;4.024;2022-11-30T16:38:52;8.10;99.90
52275;DHT22;38228;50.940;4.024;2022-11-30T16:41:25;7.80;99.90
52275;DHT22;38228;50.940;4.024;2022-11-30T16:43:53;7.80;99.90
52275;DHT22;38228;50.940;4.024;2022-11-30T16:46:27;7.80;99.90
52275;DHT22;38228;50.940;4.024;2022-11-30T16:48:53;7.70;99.90
52275;DHT22;38228;50.940;4.024;2022-11-30T16:51:30;7.60;99.90
52275;DHT22;38228;50.940;4.024;2022-11-30T16:53:59;7.70;99.90
52275;DHT22;38228;50.940;4.024;2022-11-30T16:56:24;7.60;99.90
52275;DHT22;38228;50.940;4.024;2022-11-30T16:58:51;7.60;99.90
52275;DHT22;38228;50.940;4.024;2022-11-30T17:03:55;7.70;99.90
52275;DHT22;38228;50.940;4.024;2022-11-30T17:06:22;7.80;99.90
52275;DHT22;38228;50.940;4.024;2022-11-30T17:08:48;8.10;99.90
52275;DHT22;38228;50.940;4.024;2022-11-30T17:11:30;7.80;99.90
52275;DHT22;38228;50.940;4.024;2022-11-30T17:13:56;7.70;99.90
52275;DHT22;38228;50.940;4.024;2022-11-30T17:16:22;7.70;99.90
52275;DHT22;38228;50.940;4.024;2022-11-30T17:18:48;7.60;99.90
52275;DHT22;38228;50.940;4.024;2022-11-30T17:21:16;7.80;99.90
52275;DHT22;38228;50.940;4.024;2022-11-30T17:23:43;8.10;99.90
52275;DHT22;38228;50.940;4.024;2022-11-30T17:26:10;8.00;99.90
52275;DHT22;38228;50.940;4.024;2022-11-30T17:28:36;8.00;99.90
52275;DHT22;38228;50.940;4.024;2022-11-30T17:31:02;7.90;99.90
52275;DHT22;38228;50.940;4.024;2022-11-30T17:33:32;8.00;99.90
52275;DHT22;38228;50.940;4.024;2022-11-30T17:35:58;7.90;99.90
52275;DHT22;38228;50.940;4.024;2022-11-30T17:38:27;7.70;99.90
52275;DHT22;38228;50.940;4.024;2022-11-30T17:40:53;7.50;99.90
52275;DHT22;38228;50.940;4.024;2022-11-30T17:43:20;7.50;99.90
52275;DHT22;38228;50.940;4.024;2022-11-30T17:45:45;7.40;99.90
52275;DHT22;38228;50.940;4.024;2022-11-30T17:48:11;7.60;99.90
52275;DHT22;38228;50.940;4.024;2022-11-30T17:50:38;7.70;99.90
52275;DHT22;38228;50.940;4.024;2022-11-30T17:53:05;7.70;99.90
52275;DHT22;38228;50.940;4.024;2022-11-30T17:55:31;7.50;99.90
52275;DHT22;38228;50.940;4.024;2022-11-30T17:57:57;7.50;99.90
52275;DHT22;38228;50.940;4.024;2022-11-30T18:00:23;7.60;99.90
52275;DHT22;38228;50.940;4.024;2022-11-30T18:02:50;7.40;99.90
52275;DHT22;38228;50.940;4.024;2022-11-30T18:05:17;7.40;99.90
52275;DHT22;38228;50.940;4.024;2022-11-30T18:07:42;7.20;99.90
52275;DHT22;38228;50.940;4.024;2022-11-30T18:10:09;7.30;99.90